Time;durP1;ratioP1;P1;durP2;ratioP2;P2;SDS_P1;SDS_P2;PMS_P1;PMS_P2;Temp;Humidity;BMP_temperature;BMP_pressure;BME280_temperature;BME280_humidity;BME280_pressure;Samples;Min_cycle;Max_cycle;Signal;HPM_P1;HPM_P2
2022/05/30 00:00:41;;;;;;;7.40;3.30;;;;;;;15.19;50.22;98339.15;233102;1217;139160;-62
2022/05/30 00:05:46;;;;;;;7.70;3.70;;;;;;;15.08;50.64;98330.29;233142;1217;140621;-62
2022/05/30 00:10:49;;;;;;;5.40;3.20;;;;;;;15.00;50.90;98315.16;233346;1217;139215;-62
2022/05/30 00:15:52;;;;;;;7.10;3.60;;;;;;;14.97;51.31;98313.69;233424;1217;138506;-62
2022/05/30 00:20:55;;;;;;;6.60;3.60;;;;;;;14.90;51.53;98312.13;233354;1214;139460;-62
2022/05/30 00:25:59;;;;;;;5.20;3.60;;;;;;;14.86;51.81;98314.45;233362;1217;139072;-62
2022/05/30 00:31:03;;;;;;;7.60;3.90;;;;;;;14.79;52.14;98325.10;233278;1217;138762;-61
2022/05/30 00:36:07;;;;;;;6.60;3.80;;;;;;;14.72;52.33;98322.90;233292;1217;138850;-62
2022/05/30 00:41:11;;;;;;;8.50;4.20;;;;;;;14.66;52.60;98317.34;233238;1217;139404;-62
2022/05/30 00:46:18;;;;;;;6.10;3.90;;;;;;;14.60;52.89;98317.52;233249;1217;139608;-62
2022/05/30 00:51:26;;;;;;;7.50;4.10;;;;;;;14.49;53.19;98314.06;233268;1217;139305;-63
2022/05/30 00:56:37;;;;;;;8.90;4.10;;;;;;;14.39;53.45;98309.19;233283;1217;139769;-61
2022/05/30 01:01:41;;;;;;;8.10;4.20;;;;;;;14.35;53.77;98309.77;233532;1216;139279;-63
2022/05/30 01:06:46;;;;;;;7.70;4.60;;;;;;;14.27;54.07;98308.27;233374;1217;139382;-63
2022/05/30 01:11:49;;;;;;;;;;;;;;;14.26;54.29;98302.52;233516;1217;138696;-63
2022/05/30 01:16:53;;;;;;;7.30;4.70;;;;;;;14.21;54.58;98297.95;233526;1216;125942;-63
2022/05/30 01:22:10;;;;;;;7.90;4.70;;;;;;;14.21;54.84;98291.76;233296;1216;139649;-62
2022/05/30 01:27:25;;;;;;;10.30;5.00;;;;;;;14.23;54.96;98288.85;233309;1217;139041;-62
2022/05/30 01:32:28;;;;;;;10.50;5.00;;;;;;;14.23;54.97;98288.71;233323;1217;139079;-62
2022/05/30 01:37:32;;;;;;;8.20;4.90;;;;;;;14.18;55.19;98278.30;233584;1217;139608;-63
2022/05/30 01:42:35;;;;;;;8.60;5.10;;;;;;;14.13;55.23;98275.65;233390;1217;138902;-61
2022/05/30 01:47:38;;;;;;;8.80;5.00;;;;;;;14.09;55.64;98269.23;233306;1217;139845;-63
2022/05/30 01:52:41;;;;;;;11.60;5.50;;;;;;;14.07;55.85;98260.89;233221;1217;138619;-63
2022/05/30 01:57:46;;;;;;;9.50;5.20;;;;;;;14.02;55.99;98263.95;233393;1217;139053;-63
2022/05/30 02:03:05;;;;;;;9.00;5.30;;;;;;;13.95;56.01;98270.65;233320;1217;139380;-63
2022/05/30 02:08:09;;;;;;;8.20;5.10;;;;;;;13.89;56.29;98270.52;233514;1215;138787;-61
2022/05/30 02:13:12;;;;;;;11.00;5.30;;;;;;;13.88;56.48;98276.11;233480;1217;138855;-63
2022/05/30 02:18:38;;;;;;;;;;;;;;;13.88;56.61;98274.52;233322;1217;139826;-63
2022/05/30 02:23:43;;;;;;;8.30;4.50;;;;;;;13.86;56.97;98280.08;233354;1216;126280;-63
2022/05/30 02:28:46;;;;;;;15.90;11.90;;;;;;;13.89;57.11;98279.91;233469;1217;140906;-61
2022/05/30 02:39:23;;;;;;;9.70;5.10;;;;;;;14.03;57.22;98281.58;233362;1217;139280;-63
2022/05/30 02:44:49;;;;;;;10.40;5.40;;;;;;;13.90;57.17;98280.05;233113;1217;141681;-63
2022/05/30 02:49:52;;;;;;;44.30;32.70;;;;;;;13.79;57.49;98284.27;233415;1217;138901;-63
2022/05/30 02:54:55;;;;;;;10.50;5.60;;;;;;;13.81;57.66;98284.42;233357;1217;139314;-64
2022/05/30 03:00:08;;;;;;;8.80;4.80;;;;;;;13.77;57.83;98285.94;233316;1217;139141;-64
2022/05/30 03:05:16;;;;;;;7.40;4.90;;;;;;;13.76;57.68;98290.17;233434;1216;139105;-64
2022/05/30 03:10:19;;;;;;;8.10;4.30;;;;;;;13.75;57.98;98289.73;233474;1217;139662;-65
2022/05/30 03:15:27;;;;;;;8.90;4.60;;;;;;;13.80;58.20;98294.83;233464;1217;139956;-64
2022/05/30 03:20:30;;;;;;;7.30;3.90;;;;;;;13.82;58.14;98291.05;233574;1217;139249;-66
2022/05/30 03:25:35;;;;;;;8.00;3.50;;;;;;;13.83;58.25;98295.64;233397;1217;139223;-65
2022/05/30 03:30:39;;;;;;;7.70;3.70;;;;;;;13.84;57.98;98292.18;233338;1219;138899;-62
2022/05/30 03:35:42;;;;;;;14.90;11.10;;;;;;;13.85;58.13;98305.23;233438;1217;138813;-63
2022/05/30 03:41:09;;;;;;;9.50;5.00;;;;;;;13.92;58.45;98301.12;233344;1216;139053;-64
2022/05/30 03:46:44;;;;;;;7.90;3.90;;;;;;;13.91;58.07;98302.39;233330;1217;138806;-64
2022/05/30 03:51:47;;;;;;;29.60;22.30;;;;;;;13.95;58.42;98307.95;233592;1217;139559;-65
2022/05/30 03:56:50;;;;;;;6.80;4.00;;;;;;;13.98;58.23;98315.88;233344;1217;139409;-63
2022/05/30 04:01:54;;;;;;;6.20;3.00;;;;;;;13.92;58.13;98321.00;233353;1217;139088;-64
2022/05/30 04:06:57;;;;;;;8.20;3.60;;;;;;;13.93;58.13;98317.00;233503;1217;142080;-62
2022/05/30 04:12:00;;;;;;;7.00;3.20;;;;;;;13.92;58.02;98312.67;233511;1217;139315;-61
2022/05/30 04:17:22;;;;;;;7.50;3.40;;;;;;;13.97;58.26;98315.06;233354;1217;139003;-63
2022/05/30 04:22:26;;;;;;;8.60;3.70;;;;;;;14.04;58.16;98327.53;233388;1217;139224;-64
2022/05/30 04:28:01;;;;;;;5.50;3.40;;;;;;;14.03;58.22;98323.09;232888;1217;138638;-63
2022/05/30 04:33:07;;;;;;;6.40;3.30;;;;;;;14.01;58.03;98317.27;233302;1217;138928;-64
2022/05/30 04:38:10;;;;;;;8.10;3.20;;;;;;;13.99;58.23;98319.23;233236;1217;141431;-64
2022/05/30 04:43:39;;;;;;;7.80;3.30;;;;;;;13.95;58.20;98314.92;233232;1217;138824;-64
2022/05/30 04:49:01;;;;;;;7.30;3.00;;;;;;;13.92;58.13;98322.13;233435;1217;139447;-65
2022/05/30 04:54:05;;;;;;;5.70;2.80;;;;;;;13.88;58.27;98325.34;233400;1217;139029;-64
2022/05/30 04:59:41;;;;;;;6.20;3.10;;;;;;;13.87;58.57;98320.64;233207;1219;139468;-63
2022/05/30 05:04:46;;;;;;;6.90;3.10;;;;;;;13.93;58.63;98318.61;233486;1217;140298;-62
2022/05/30 05:09:56;;;;;;;5.60;3.10;;;;;;;14.01;58.46;98315.80;233184;1217;139613;-62
2022/05/30 05:15:18;;;;;;;8.00;3.20;;;;;;;14.07;58.53;98319.02;233365;1217;139123;-61
2022/05/30 05:20:44;;;;;;;7.70;3.30;;;;;;;14.13;58.41;98311.89;233395;1217;139192;-63
2022/05/30 05:25:47;;;;;;;7.10;3.30;;;;;;;14.24;58.42;98324.86;233253;1215;139931;-63
2022/05/30 05:31:09;;;;;;;8.70;3.30;;;;;;;14.24;58.23;98326.44;233368;1217;139206;-64
2022/05/30 05:36:18;;;;;;;8.20;3.50;;;;;;;14.30;58.43;98331.92;233434;1217;139269;-64
2022/05/30 05:41:23;;;;;;;10.30;6.10;;;;;;;14.33;58.13;98336.00;233552;1217;138719;-63
2022/05/30 05:46:47;;;;;;;6.40;3.70;;;;;;;14.30;57.97;98336.83;233418;1217;139270;-63
2022/05/30 05:51:57;;;;;;;9.60;3.30;;;;;;;14.25;58.04;98336.16;233498;1216;139039;-63
2022/05/30 05:57:00;;;;;;;6.20;3.10;;;;;;;14.20;58.21;98346.09;233654;1216;138966;-61
2022/05/30 06:02:23;;;;;;;6.40;3.80;;;;;;;14.22;58.16;98358.91;233326;1217;144326;-61
2022/05/30 06:07:27;;;;;;;9.40;3.60;;;;;;;14.26;58.33;98362.31;233388;1217;138841;-61
2022/05/30 06:12:48;;;;;;;4.30;3.10;;;;;;;14.27;58.24;98358.10;233434;1217;139024;-64
2022/05/30 06:17:52;;;;;;;6.80;3.40;;;;;;;14.30;58.50;98363.92;233487;1217;138896;-62
2022/05/30 06:22:55;;;;;;;6.80;3.40;;;;;;;14.31;58.37;98366.86;233422;1217;139071;-61
2022/05/30 06:28:38;;;;;;;8.40;3.60;;;;;;;14.32;58.38;98363.69;232958;1220;139647;-63
2022/05/30 06:33:47;;;;;;;9.40;5.70;;;;;;;14.28;58.45;98365.67;233309;1217;138847;-62
2022/05/30 06:39:03;;;;;;;13.30;6.50;;;;;;;14.25;58.29;98375.42;233273;1217;139276;-63
2022/05/30 06:44:12;;;;;;;10.10;6.30;;;;;;;14.13;58.24;98387.14;233389;1217;139671;-64
2022/05/30 06:49:52;;;;;;;11.10;5.80;;;;;;;14.04;58.56;98384.60;233659;1217;139918;-64
2022/05/30 06:55:00;;;;;;;9.30;5.70;;;;;;;13.96;58.39;98384.55;233498;1217;139077;-63
2022/05/30 07:00:05;;;;;;;7.80;4.60;;;;;;;13.98;58.46;98394.02;233621;1217;139770;-61
2022/05/30 07:05:12;;;;;;;10.10;5.20;;;;;;;13.99;58.64;98403.41;233383;1215;139730;-61
2022/05/30 07:10:35;;;;;;;7.90;5.10;;;;;;;14.01;58.89;98404.79;233508;1217;139526;-61
2022/05/30 07:15:50;;;;;;;7.30;4.40;;;;;;;14.04;58.94;98411.88;233360;1215;139043;-60
2022/05/30 07:21:09;;;;;;;7.90;4.20;;;;;;;14.03;58.87;98415.73;233336;1217;138948;-60
2022/05/30 07:26:16;;;;;;;6.60;4.10;;;;;;;14.04;59.07;98419.87;233513;1216;139014;-60
2022/05/30 07:31:39;;;;;;;7.50;4.00;;;;;;;14.10;59.16;98421.11;233352;1215;138814;-59
2022/05/30 07:37:00;;;;;;;12.30;4.60;;;;;;;14.13;58.88;98431.05;233182;1216;139792;-62
2022/05/30 07:42:29;;;;;;;6.40;3.80;;;;;;;14.11;58.91;98431.71;233439;1217;138982;-61
2022/05/30 07:47:42;;;;;;;8.00;4.40;;;;;;;14.13;58.89;98440.52;233317;1217;138822;-61
2022/05/30 07:52:56;;;;;;;10.10;4.40;;;;;;;14.14;58.89;98445.42;233313;1217;139305;-61
2022/05/30 07:58:26;;;;;;;7.10;4.90;;;;;;;14.24;58.79;98447.05;233332;1217;139972;-61
2022/05/30 08:03:29;;;;;;;10.50;6.20;;;;;;;14.42;58.58;98455.45;233273;1217;138940;-60
2022/05/30 08:08:52;;;;;;;10.10;6.40;;;;;;;14.49;58.61;98452.39;233262;1217;139334;-59
2022/05/30 08:13:55;;;;;;;11.30;6.60;;;;;;;14.49;58.30;98458.79;233457;1217;139614;-60
2022/05/30 08:18:58;;;;;;;9.90;6.70;;;;;;;14.48;58.36;98467.71;233412;1216;138988;-60
2022/05/30 08:24:08;;;;;;;9.50;7.10;;;;;;;14.41;58.16;98473.41;233317;1217;139226;-60
2022/05/30 08:29:20;;;;;;;12.30;7.30;;;;;;;14.40;58.34;98473.86;233422;1217;138845;-64
2022/05/30 08:34:23;;;;;;;9.90;6.80;;;;;;;14.48;58.29;98474.25;233405;1217;139608;-63
2022/05/30 08:44:55;;;;;;;7.10;4.90;;;;;;;14.65;57.84;98471.91;233284;1218;138544;-62
2022/05/30 08:50:43;;;;;;;7.50;4.70;;;;;;;14.59;57.32;98488.87;233278;1217;139461;-63
2022/05/30 08:55:54;;;;;;;6.40;4.50;;;;;;;14.53;57.50;98494.68;233491;1216;140082;-62
2022/05/30 09:01:46;;;;;;;6.80;3.80;;;;;;;14.59;57.53;98504.32;233310;1219;138869;-61
2022/05/30 09:07:26;;;;;;;6.30;3.60;;;;;;;14.74;57.15;98503.58;233408;1217;138742;-62
2022/05/30 09:12:29;;;;;;;5.60;3.80;;;;;;;14.82;56.93;98496.64;233497;1217;141321;-62
2022/05/30 09:18:00;;;;;;;6.00;4.10;;;;;;;15.03;56.96;98501.23;233452;1217;138971;-61
2022/05/30 09:23:05;;;;;;;6.90;3.30;;;;;;;15.13;56.64;98510.14;233356;1216;141208;-62
2022/05/30 09:28:08;;;;;;;7.60;3.50;;;;;;;15.17;56.38;98509.30;233301;1217;138305;-61
2022/05/30 09:33:34;;;;;;;4.80;3.30;;;;;;;15.26;56.32;98504.47;233405;1217;138806;-60
2022/05/30 09:39:17;;;;;;;5.00;2.70;;;;;;;15.46;56.29;98518.23;233209;1217;138877;-61
2022/05/30 09:44:42;;;;;;;5.30;2.70;;;;;;;15.65;56.06;98517.23;233232;1216;138851;-61
2022/05/30 09:50:18;;;;;;;4.80;3.00;;;;;;;15.91;55.61;98522.98;233258;1217;139096;-62
2022/05/30 09:55:30;;;;;;;7.60;2.70;;;;;;;16.00;55.03;98528.70;233286;1217;139077;-62
2022/05/30 10:00:49;;;;;;;6.90;2.50;;;;;;;16.15;54.59;98528.35;233178;1217;139145;-63
2022/05/30 10:06:17;;;;;;;6.10;3.90;;;;;;;16.31;53.94;98533.19;233250;1217;139566;-62
2022/05/30 10:11:32;;;;;;;8.10;3.00;;;;;;;16.25;53.63;98535.99;233327;1216;138555;-62
2022/05/30 10:16:41;;;;;;;8.90;2.90;;;;;;;16.25;53.72;98535.67;232947;1216;138417;-62
2022/05/30 10:28:17;;;;;;;3.10;2.00;;;;;;;16.46;53.07;98535.13;233315;1217;139173;-63
2022/05/30 10:34:04;;;;;;;4.60;2.30;;;;;;;16.74;52.70;98533.38;232582;1217;138902;-62
2022/05/30 10:39:45;;;;;;;4.10;1.80;;;;;;;17.07;52.86;98527.18;233213;1219;139634;-62
2022/05/30 10:45:04;;;;;;;4.00;2.30;;;;;;;17.52;52.22;98522.96;233403;1216;139056;-62
2022/05/30 10:50:42;;;;;;;3.10;1.90;;;;;;;17.86;51.59;98513.52;233191;1217;138904;-63
2022/05/30 10:55:51;;;;;;;5.70;2.20;;;;;;;18.22;51.33;98514.69;233424;1217;138983;-62
2022/05/30 11:01:08;;;;;;;4.80;2.00;;;;;;;18.56;50.72;98516.27;233220;1217;139245;-62
2022/05/30 11:06:24;;;;;;;4.80;1.70;;;;;;;18.77;50.32;98514.11;233491;1217;139122;-63
2022/05/30 11:11:46;;;;;;;2.90;1.60;;;;;;;18.76;49.58;98519.39;233281;1216;139077;-61
2022/05/30 11:17:26;;;;;;;54.80;42.50;;;;;;;18.96;49.03;98520.16;233257;1217;138700;-63
2022/05/30 11:22:54;;;;;;;3.20;2.20;;;;;;;19.20;48.49;98517.10;233266;1217;139093;-62
2022/05/30 11:28:26;;;;;;;2.70;1.60;;;;;;;19.49;48.06;98517.10;233533;1217;139322;-61
2022/05/30 11:33:57;;;;;;;7.00;3.90;;;;;;;19.49;46.85;98525.37;233510;1217;139113;-61
2022/05/30 11:39:20;;;;;;;4.60;2.40;;;;;;;19.32;46.42;98523.70;233266;1217;139046;-62
2022/05/30 11:44:50;;;;;;;2.90;1.40;;;;;;;19.11;46.46;98529.34;233338;1216;139059;-61
2022/05/30 11:50:14;;;;;;;3.90;1.40;;;;;;;18.94;46.34;98536.38;233457;1217;139567;-60
2022/05/30 11:55:21;;;;;;;2.70;1.50;;;;;;;19.24;46.71;98526.16;233411;1216;138900;-61
2022/05/30 12:00:32;;;;;;;4.00;1.80;;;;;;;19.60;46.53;98529.88;233289;1216;138704;-61
2022/05/30 12:06:23;;;;;;;4.40;1.80;;;;;;;19.79;45.94;98529.35;233295;1217;139443;-61
2022/05/30 12:11:47;;;;;;;4.10;1.80;;;;;;;19.53;45.35;98539.98;233521;1217;138986;-62
2022/05/30 12:16:59;;;;;;;3.30;2.20;;;;;;;19.48;45.53;98528.91;233301;1217;140277;-62
2022/05/30 12:27:35;;;;;;;6.90;2.40;;;;;;;19.76;45.12;98538.09;233439;1217;139585;-61
2022/05/30 12:32:39;;;;;;;4.00;2.20;;;;;;;19.78;44.79;98531.08;233311;1217;138976;-62
2022/05/30 12:37:46;;;;;;;6.20;1.80;;;;;;;20.02;44.36;98529.71;233380;1217;139550;-62
2022/05/30 12:43:23;;;;;;;3.00;2.10;;;;;;;20.04;44.08;98530.73;233239;1219;139076;-62
2022/05/30 12:48:35;;;;;;;2.60;1.90;;;;;;;20.26;43.82;98528.70;233237;1217;138638;-62
2022/05/30 12:53:59;;;;;;;3.20;2.10;;;;;;;20.62;43.86;98514.73;233210;1217;139098;-59
2022/05/30 12:59:02;;;;;;;14.40;6.60;;;;;;;21.15;43.93;98513.37;233313;1217;139304;-62
2022/05/30 13:04:08;;;;;;;2.80;2.30;;;;;;;21.45;43.34;98509.48;233488;1217;138841;-61
2022/05/30 13:09:18;;;;;;;4.10;2.00;;;;;;;21.34;42.24;98516.95;233160;1217;139077;-62
2022/05/30 13:14:28;;;;;;;4.40;2.00;;;;;;;21.38;42.12;98510.30;233431;1216;139112;-62
2022/05/30 13:19:31;;;;;;;6.00;2.00;;;;;;;21.71;42.21;98514.11;233429;1217;138985;-61
2022/05/30 13:24:38;;;;;;;9.80;4.70;;;;;;;22.00;42.02;98503.99;233220;1217;139137;-60
2022/05/30 13:29:41;;;;;;;2.40;1.80;;;;;;;22.38;42.04;98497.20;233268;1217;139088;-60
2022/05/30 13:34:48;;;;;;;5.60;1.80;;;;;;;22.71;41.31;98495.16;233246;1217;139132;-62
2022/05/30 13:39:56;;;;;;;3.40;1.70;;;;;;;22.74;40.05;98504.39;233411;1217;139300;-61
2022/05/30 13:45:01;;;;;;;4.10;1.70;;;;;;;22.79;40.08;98506.54;233220;1217;138884;-60
2022/05/30 13:50:05;;;;;;;4.00;1.80;;;;;;;22.95;39.80;98511.95;233379;1217;139785;-61
2022/05/30 13:55:21;;;;;;;4.70;1.80;;;;;;;23.21;39.48;98518.94;233236;1217;138825;-60
2022/05/30 14:00:31;;;;;;;7.20;1.80;;;;;;;23.25;39.04;98527.45;233339;1217;139240;-61
2022/05/30 14:05:38;;;;;;;2.60;1.50;;;;;;;23.24;38.68;98523.84;233241;1217;139037;-60
2022/05/30 14:10:44;;;;;;;5.40;1.90;;;;;;;23.31;38.56;98525.98;233254;1217;138982;-61
2022/05/30 14:15:57;;;;;;;3.10;1.70;;;;;;;23.37;38.26;98529.36;233236;1217;140257;-62
2022/05/30 14:21:07;;;;;;;4.90;2.20;;;;;;;23.31;37.85;98537.78;233138;1217;140040;-64
2022/05/30 14:26:22;;;;;;;4.80;1.80;;;;;;;23.20;37.75;98537.02;233259;1217;139206;-62
2022/05/30 14:31:31;;;;;;;3.60;1.50;;;;;;;23.12;37.86;98528.02;233411;1216;140226;-60
2022/05/30 14:36:40;;;;;;;3.70;1.60;;;;;;;23.16;37.66;98523.39;233265;1217;139917;-62
2022/05/30 14:41:52;;;;;;;6.60;1.90;;;;;;;23.06;37.36;98524.71;233504;1217;138832;-62
2022/05/30 14:46:55;;;;;;;4.90;1.70;;;;;;;22.87;37.36;98526.85;233394;1217;139677;-61
2022/05/30 14:52:02;;;;;;;6.30;1.80;;;;;;;22.59;37.26;98522.27;233270;1217;138767;-61
2022/05/30 14:57:16;;;;;;;2.80;1.70;;;;;;;22.32;37.28;98538.90;233213;1217;139415;-60
2022/05/30 15:07:44;;;;;;;3.50;1.90;;;;;;;21.75;37.28;98534.79;233364;1217;139243;-61
2022/05/30 15:12:48;;;;;;;3.00;1.90;;;;;;;21.51;37.67;98530.82;233294;1217;138433;-60
2022/05/30 15:17:56;;;;;;;6.50;1.80;;;;;;;21.35;37.81;98531.56;233310;1217;139055;-61
2022/05/30 15:23:01;;;;;;;5.80;1.90;;;;;;;21.17;37.61;98538.19;233071;1217;139217;-62
2022/05/30 15:28:04;;;;;;;4.90;1.70;;;;;;;20.95;37.75;98541.66;233539;1217;140095;-59
2022/05/30 15:33:10;;;;;;;4.00;1.70;;;;;;;20.74;37.86;98546.50;233281;1217;139394;-61
2022/05/30 15:38:13;;;;;;;5.10;1.70;;;;;;;20.64;38.15;98554.96;233339;1217;139996;-62
2022/05/30 15:43:34;;;;;;;2.50;1.40;;;;;;;20.57;38.22;98558.60;233606;1217;139042;-61
2022/05/30 15:48:39;;;;;;;3.00;1.70;;;;;;;20.47;38.19;98566.41;233286;1217;139598;-61
2022/05/30 15:59:17;;;;;;;8.00;1.70;;;;;;;20.31;38.38;98568.73;233258;1217;139447;-62
2022/05/30 16:04:20;;;;;;;4.10;1.90;;;;;;;20.15;38.32;98569.16;233394;1217;139833;-62
2022/05/30 16:09:29;;;;;;;2.40;1.60;;;;;;;20.02;38.38;98575.63;233487;1217;139379;-61
2022/05/30 16:14:32;;;;;;;4.20;1.90;;;;;;;19.99;38.58;98589.71;233229;1217;139164;-61
2022/05/30 16:19:35;;;;;;;3.00;1.90;;;;;;;19.95;38.68;98582.38;233395;1217;139685;-62
2022/05/30 16:24:39;;;;;;;2.50;1.90;;;;;;;19.91;38.57;98586.73;233243;1217;139393;-62
2022/05/30 16:29:42;;;;;;;5.10;1.80;;;;;;;19.91;38.66;98594.97;233178;1217;139108;-62
2022/05/30 16:34:46;;;;;;;2.50;1.70;;;;;;;19.86;38.69;98601.13;233356;1217;139169;-61
2022/05/30 16:39:56;;;;;;;2.30;1.70;;;;;;;19.81;38.65;98604.22;233186;1217;139121;-62
2022/05/30 16:44:59;;;;;;;1.90;1.50;;;;;;;19.71;38.23;98611.79;233182;1215;138959;-62
2022/05/30 16:50:03;;;;;;;3.70;1.80;;;;;;;19.64;38.28;98612.13;233309;1217;139039;-62
2022/05/30 16:55:07;;;;;;;4.20;2.20;;;;;;;19.60;38.51;98603.64;233259;1217;139038;-61
2022/05/30 17:00:32;;;;;;;3.60;1.70;;;;;;;19.63;38.59;98608.88;233255;1217;138853;-61
2022/05/30 17:05:42;;;;;;;4.10;1.80;;;;;;;19.60;38.86;98613.60;233451;1217;139522;-60
2022/05/30 17:10:47;;;;;;;4.30;1.70;;;;;;;19.57;38.79;98620.58;233243;1217;139633;-62
2022/05/30 17:15:52;;;;;;;3.40;1.60;;;;;;;19.56;38.71;98625.33;233149;1217;139190;-61
2022/05/30 17:20:56;;;;;;;;;;;;;;;19.52;38.67;98621.63;233324;1217;138929;-61
2022/05/30 17:25:59;;;;;;;3.70;1.90;;;;;;;19.50;38.82;98629.66;233515;1217;125485;-61
2022/05/30 17:31:04;;;;;;;3.20;1.50;;;;;;;19.46;38.71;98637.84;233334;1217;140397;-61
2022/05/30 17:36:08;;;;;;;;;;;;;;;19.40;38.66;98632.86;233286;1217;138962;-61
2022/05/30 17:41:11;;;;;;;10.80;6.60;;;;;;;19.33;38.79;98646.54;233393;1217;125583;-62
2022/05/30 17:46:22;;;;;;;5.10;2.50;;;;;;;19.34;38.91;98655.02;233272;1217;139931;-60
2022/05/30 17:51:48;;;;;;;3.90;1.90;;;;;;;19.32;38.86;98664.65;233334;1216;140786;-62
2022/05/30 17:56:52;;;;;;;4.70;1.80;;;;;;;19.30;39.03;98668.92;233339;1216;138894;-61
2022/05/30 18:01:56;;;;;;;9.40;2.20;;;;;;;19.29;39.05;98678.79;233427;1217;139783;-60
2022/05/30 18:07:11;;;;;;;5.50;2.10;;;;;;;19.25;39.08;98678.24;233504;1217;139995;-60
2022/05/30 18:12:33;;;;;;;56.80;43.40;;;;;;;19.22;39.03;98675.21;233368;1217;138659;-61
2022/05/30 18:17:57;;;;;;;427.10;324.60;;;;;;;19.21;39.30;98677.30;233381;1217;139552;-61
2022/05/30 18:23:10;;;;;;;17.80;11.00;;;;;;;19.22;40.14;98683.78;233498;1217;139833;-62
2022/05/30 18:28:17;;;;;;;9.00;5.60;;;;;;;19.24;40.26;98689.26;233371;1217;139656;-61
2022/05/30 18:33:31;;;;;;;6.30;3.50;;;;;;;19.18;40.87;98697.51;233303;1217;140108;-61
2022/05/30 18:38:43;;;;;;;52.20;38.60;;;;;;;19.11;41.00;98703.06;233424;1216;139119;-61
2022/05/30 18:43:50;;;;;;;51.00;40.20;;;;;;;19.07;40.84;98710.52;233379;1217;139650;-62
2022/05/30 18:49:02;;;;;;;5.50;3.30;;;;;;;18.90;40.57;98717.13;233248;1217;139617;-62
2022/05/30 18:54:06;;;;;;;4.40;2.40;;;;;;;18.66;40.75;98740.40;233239;1217;140482;-60
2022/05/30 18:59:46;;;;;;;6.50;4.00;;;;;;;18.44;40.95;98749.19;233146;1219;138904;-61
2022/05/30 19:04:51;;;;;;;23.40;14.50;;;;;;;18.32;41.69;98769.03;233196;1217;139638;-61
2022/05/30 19:09:56;;;;;;;20.60;11.80;;;;;;;18.44;42.75;98771.11;233453;1217;139370;-60
2022/05/30 19:20:39;;;;;;;4.20;2.60;;;;;;;18.51;42.18;98782.33;233360;1217;139564;-61
2022/05/30 19:25:42;;;;;;;46.10;41.50;;;;;;;18.21;42.16;98792.22;233437;1217;139329;-60
2022/05/30 19:30:45;;;;;;;81.90;72.90;;;;;;;17.95;42.44;98790.84;233421;1217;140192;-61
2022/05/30 19:35:49;;;;;;;6.80;3.70;;;;;;;17.78;42.62;98807.30;233266;1217;140396;-60
2022/05/30 19:40:56;;;;;;;8.90;3.30;;;;;;;17.57;42.80;98808.59;233368;1217;139254;-60
2022/05/30 19:46:01;;;;;;;5.90;3.10;;;;;;;17.38;43.33;98814.83;233163;1217;139764;-60
2022/05/30 19:51:06;;;;;;;5.60;3.20;;;;;;;17.22;43.40;98818.01;233431;1217;138704;-59
2022/05/30 19:56:10;;;;;;;6.60;3.70;;;;;;;17.11;43.99;98818.67;233560;1217;139070;-60
2022/05/30 20:01:13;;;;;;;7.30;3.30;;;;;;;17.01;44.27;98817.00;233468;1217;139013;-60
2022/05/30 20:06:16;;;;;;;6.10;3.40;;;;;;;16.99;44.13;98820.60;233271;1217;139736;-61
2022/05/30 20:11:20;;;;;;;6.60;3.10;;;;;;;16.98;44.32;98830.10;233284;1217;139192;-58
2022/05/30 20:16:24;;;;;;;6.10;3.50;;;;;;;16.93;44.38;98837.57;233442;1216;138994;-60
2022/05/30 20:21:29;;;;;;;7.30;3.90;;;;;;;16.89;44.67;98847.57;233465;1215;139205;-60
2022/05/30 20:26:34;;;;;;;8.10;3.90;;;;;;;16.88;44.58;98848.42;233546;1217;139226;-59
2022/05/30 20:31:38;;;;;;;9.20;4.10;;;;;;;16.85;44.82;98847.39;233466;1217;139021;-62
2022/05/30 20:36:41;;;;;;;14.00;4.90;;;;;;;16.84;45.24;98844.46;233349;1217;139384;-60
2022/05/30 20:47:08;;;;;;;8.10;4.60;;;;;;;16.71;45.40;98851.31;233514;1217;138767;-61
2022/05/30 20:52:12;;;;;;;7.60;4.50;;;;;;;16.62;45.54;98864.10;233459;1217;140786;-60
2022/05/30 20:57:15;;;;;;;12.50;4.80;;;;;;;16.49;46.01;98867.80;233409;1217;139646;-60
2022/05/30 21:02:18;;;;;;;7.60;4.40;;;;;;;16.32;46.02;98860.71;233607;1216;139002;-59
2022/05/30 21:07:22;;;;;;;9.80;5.40;;;;;;;16.18;46.37;98872.34;233295;1217;139178;-60
2022/05/30 21:12:25;;;;;;;11.70;4.60;;;;;;;16.05;46.87;98877.61;233563;1216;139115;-61
2022/05/30 21:17:37;;;;;;;10.70;5.30;;;;;;;15.95;47.03;98899.60;233428;1217;139836;-61
2022/05/30 21:22:46;;;;;;;13.50;5.90;;;;;;;15.84;47.41;98900.86;233288;1217;139538;-61
2022/05/30 21:27:50;;;;;;;11.60;6.60;;;;;;;15.72;47.77;98904.91;233351;1217;139162;-61
2022/05/30 21:32:57;;;;;;;13.00;6.30;;;;;;;15.58;48.04;98910.26;233362;1216;139462;-61
2022/05/30 21:38:01;;;;;;;12.60;6.80;;;;;;;15.49;48.46;98910.78;233698;1217;139539;-61
2022/05/30 21:43:05;;;;;;;12.50;6.60;;;;;;;15.43;48.74;98919.70;233351;1217;139782;-60
2022/05/30 21:48:09;;;;;;;11.20;7.20;;;;;;;15.41;49.08;98928.28;233348;1215;139206;-62
2022/05/30 21:53:12;;;;;;;9.30;6.20;;;;;;;15.35;49.08;98931.11;233342;1217;139139;-61
2022/05/30 21:58:15;;;;;;;11.50;6.10;;;;;;;15.28;49.48;98928.30;233419;1217;139351;-60
2022/05/30 22:03:23;;;;;;;12.40;6.20;;;;;;;15.21;49.50;98920.83;233411;1217;140454;-61
2022/05/30 22:08:31;;;;;;;11.70;5.90;;;;;;;15.16;49.71;98935.70;233337;1217;139890;-60
2022/05/30 22:13:35;;;;;;;9.60;5.80;;;;;;;15.12;49.96;98942.98;233582;1217;138910;-60
2022/05/30 22:18:38;;;;;;;10.80;5.60;;;;;;;15.09;49.98;98943.11;233275;1217;139342;-62
2022/05/30 22:23:41;;;;;;;8.90;5.40;;;;;;;15.07;50.23;98953.30;233242;1215;139465;-60
2022/05/30 22:28:46;;;;;;;9.40;5.60;;;;;;;15.04;50.40;98955.25;233292;1217;142979;-60
2022/05/30 22:33:49;;;;;;;12.00;6.30;;;;;;;14.99;50.58;98952.66;233233;1217;139853;-60
2022/05/30 22:38:52;;;;;;;14.40;7.20;;;;;;;14.98;50.65;98952.21;233313;1217;140134;-60
2022/05/30 22:43:55;;;;;;;13.00;7.30;;;;;;;14.92;50.89;98943.03;233475;1217;138870;-60
2022/05/30 22:48:58;;;;;;;14.70;7.10;;;;;;;14.88;51.10;98946.63;233499;1217;139235;-61
2022/05/30 22:54:01;;;;;;;13.60;6.50;;;;;;;14.80;51.21;98942.77;233240;1217;138933;-60
2022/05/30 22:59:05;;;;;;;15.80;7.10;;;;;;;14.71;51.11;98947.59;233906;1216;139230;-61
2022/05/30 23:04:08;;;;;;;13.50;6.20;;;;;;;14.61;51.20;98942.17;233662;1217;139353;-61
2022/05/30 23:09:11;;;;;;;11.20;6.50;;;;;;;14.54;51.59;98945.27;233886;1216;140021;-60
2022/05/30 23:14:21;;;;;;;9.90;6.40;;;;;;;14.45;51.52;98953.21;233307;1217;138778;-59
2022/05/30 23:19:31;;;;;;;13.00;6.70;;;;;;;14.32;51.57;98953.70;233912;1215;138709;-60
2022/05/30 23:24:35;;;;;;;10.40;6.50;;;;;;;14.16;51.62;98964.46;233991;1217;139430;-59
2022/05/30 23:29:38;;;;;;;9.60;6.10;;;;;;;14.05;52.00;98967.11;233733;1217;138805;-62
2022/05/30 23:34:41;;;;;;;9.40;6.00;;;;;;;13.96;52.17;98974.55;233719;1217;139335;-60
2022/05/30 23:39:45;;;;;;;11.90;6.10;;;;;;;13.86;52.39;98982.94;233694;1217;138625;-60
2022/05/30 23:44:50;;;;;;;9.10;6.20;;;;;;;13.74;52.61;98981.03;233814;1217;139036;-60
2022/05/30 23:49:55;;;;;;;11.80;6.20;;;;;;;13.67;52.74;98990.83;233571;1216;138383;-60
2022/05/30 23:54:58;;;;;;;10.20;5.90;;;;;;;13.61;52.90;98998.05;233716;1217;138931;-60
